Time;durP1;ratioP1;P1;durP2;ratioP2;P2;SDS_P1;SDS_P2;PMS_P1;PMS_P2;Temp;Humidity;BMP_temperature;BMP_pressure;BME280_temperature;BME280_humidity;BME280_pressure;Samples;Min_cycle;Max_cycle;Signal;HPM_P1;HPM_P2
2021/03/12 00:01:26;;;;;;;;;;;;;;;8.18;48.72;98577.72;4806895;29;20247;-76
2021/03/12 00:03:55;;;;;;;;;;;;;;;8.17;50.10;98577.78;4823822;29;20407;-76
2021/03/12 00:06:26;;;;;;;;;;;;;;;8.16;49.79;98584.84;4823618;29;20371;-75
2021/03/12 00:08:55;;;;;;;;;;;;;;;8.18;49.88;98582.13;4823546;29;19929;-76
2021/03/12 00:11:33;;;;;;;;;;;;;;;8.26;49.22;98587.84;4806927;29;20312;-76
2021/03/12 00:25:16;;;;;;;;;;;;;;;8.56;43.83;98605.63;4810984;29;20399;-76
2021/03/12 00:27:45;;;;;;;;;;;;;;;8.58;43.75;98609.06;4822993;29;20430;-76
2021/03/12 00:30:17;;;;;;;;;;;;;;;8.62;42.92;98610.59;4807133;29;20395;-76
2021/03/12 00:32:47;;;;;;;;;;;;;;;8.61;42.98;98604.44;4807129;29;19933;-76
2021/03/12 00:35:18;;;;;;;;;;;;;;;8.62;42.22;98608.78;4807620;29;19929;-76
2021/03/12 00:37:47;;;;;;;;;;;;;;;8.66;41.82;98613.91;4823487;29;19972;-76
2021/03/12 00:40:20;;;;;;;;;;;;;;;8.68;41.93;98618.16;4824832;29;20332;-76
2021/03/12 00:42:52;;;;;;;;;;;;;;;8.68;41.25;98619.94;4826829;29;20462;-76
2021/03/12 00:45:25;;;;;;;;;;;;;;;8.69;41.46;98619.00;4827116;29;20348;-76
2021/03/12 00:48:00;;;;;;;;;;;;;;;8.64;41.61;98625.38;4826754;29;19982;-76
2021/03/12 00:50:33;;;;;;;;;;;;;;;8.68;40.77;98625.22;4810891;29;20402;-76
2021/03/12 00:53:02;;;;;;;;;;;;;;;8.56;41.84;98635.50;4826638;29;20340;-76
2021/03/12 00:55:34;;;;;;;;;;;;;;;8.42;42.27;98630.06;4826249;29;20268;-76
2021/03/12 00:58:06;;;;;;;;;;;;;;;8.31;42.92;98636.72;4826897;29;20393;-76
2021/03/12 01:05:07;;;;;;;;;;;;;;;8.15;44.99;98638.44;4789974;29;19932;-76
2021/03/12 01:07:38;;;;;;;;;;;;;;;8.12;45.48;98649.16;4788326;30;20419;-76
2021/03/12 01:10:08;;;;;;;;;;;;;;;8.08;45.61;98645.81;4787928;30;20430;-76
2021/03/12 01:12:40;;;;;;;;;;;;;;;8.06;45.92;98644.19;4773401;30;20071;-76
2021/03/12 01:15:10;;;;;;;;;;;;;;;8.03;46.36;98642.53;4788268;30;20361;-76
2021/03/12 01:17:40;;;;;;;;;;;;;;;8.00;46.83;98647.97;4788006;30;20396;-76
2021/03/12 01:20:14;;;;;;;;;;;;;;;7.98;47.32;98641.94;4788018;29;20360;-76
2021/03/12 01:22:45;;;;;;;;;;;;;;;7.97;47.43;98648.13;4772756;30;20436;-76
2021/03/12 01:25:16;;;;;;;;;;;;;;;7.94;47.97;98643.84;4787677;30;19936;-76
2021/03/12 01:27:47;;;;;;;;;;;;;;;7.93;48.14;98654.47;4788442;30;20373;-76
2021/03/12 01:30:19;;;;;;;;;;;;;;;7.91;48.90;98651.06;4788034;30;20376;-76
2021/03/12 01:32:49;;;;;;;;;;;;;;;7.90;48.76;98655.47;4809444;29;19935;-76
2021/03/12 01:35:21;;;;;;;;;;;;;;;7.89;48.96;98663.44;4825930;29;19992;-76
2021/03/12 01:37:52;;;;;;;;;;;;;;;7.87;49.31;98657.44;4825472;29;20387;-76
2021/03/12 01:40:23;;;;;;;;;;;;;;;7.85;49.58;98657.47;4825963;29;20448;-76
2021/03/12 01:43:02;;;;;;;;;;;;;;;7.85;49.83;98654.84;4809689;29;20303;-76
2021/03/12 01:45:36;;;;;;;;;;;;;;;7.84;49.92;98658.44;4809527;29;19932;-76
2021/03/12 01:51:44;;;;;;;;;;;;;;;7.80;50.62;98663.00;4825028;29;20410;-76
2021/03/12 01:55:02;;;;;;;;;;;;;;;7.79;51.00;98660.44;4825980;29;20027;-76
2021/03/12 01:57:34;;;;;;;;;;;;;;;7.79;50.96;98663.06;4810023;29;20414;-76
2021/03/12 02:00:21;;;;;;;;;;;;;;;7.77;50.96;98660.50;4809576;29;20391;-76
2021/03/12 02:02:52;;;;;;;;;;;;;;;7.77;51.19;98664.91;4808920;29;19936;-76
2021/03/12 02:09:35;;;;;;;;;;;;;;;7.83;50.67;98669.88;4811718;29;19947;-76
2021/03/12 02:12:10;;;;;;;;;;;;;;;8.04;48.92;98675.03;4825878;29;20455;-76
2021/03/12 02:14:44;;;;;;;;;;;;;;;8.16;47.83;98679.66;4826107;29;20351;-76
2021/03/12 02:17:18;;;;;;;;;;;;;;;8.24;46.27;98680.13;4824937;29;20443;-76
2021/03/12 02:23:56;;;;;;;;;;;;;;;8.08;47.79;98679.19;4824963;29;19932;-76
2021/03/12 02:26:35;;;;;;;;;;;;;;;8.08;48.24;98681.84;4825246;29;20383;-76
2021/03/12 02:29:08;;;;;;;;;;;;;;;8.14;48.08;98684.13;4825081;29;19928;-76
2021/03/12 02:31:43;;;;;;;;;;;;;;;8.25;46.34;98681.81;4808445;29;20260;-76
2021/03/12 02:37:58;;;;;;;;;;;;;;;8.39;44.49;98686.41;4825139;29;19931;-76
2021/03/12 02:40:28;;;;;;;;;;;;;;;8.43;44.11;98692.34;4825098;29;20458;-76
2021/03/12 02:43:03;;;;;;;;;;;;;;;8.45;43.23;98701.03;4808325;29;20306;-76
2021/03/12 02:45:34;;;;;;;;;;;;;;;8.47;42.84;98699.22;4824826;29;20463;-76
2021/03/12 02:55:18;;;;;;;;;;;;;;;8.53;41.73;98714.69;4808433;29;19964;-76
2021/03/12 02:58:01;;;;;;;;;;;;;;;8.57;41.15;98715.41;4825132;29;19967;-76
2021/03/12 03:00:32;;;;;;;;;;;;;;;8.59;41.31;98713.53;4824852;29;20455;-76
2021/03/12 03:03:41;;;;;;;;;;;;;;;8.59;40.55;98716.19;4806712;29;20507;-74
2021/03/12 03:06:31;;;;;;;;;;;;;;;8.49;41.20;98720.22;4824368;29;19935;-74
2021/03/12 03:09:02;;;;;;;;;;;;;;;8.34;42.00;98719.16;4808036;29;20028;-74
2021/03/12 03:11:35;;;;;;;;;;;;;;;8.23;43.02;98717.91;4824624;29;20378;-74
2021/03/12 03:18:01;;;;;;;;;;;;;;;8.07;44.39;98727.53;4824489;29;19947;-74
2021/03/12 03:24:20;;;;;;;;;;;;;;;7.96;45.77;98723.63;4803064;29;19972;-74
2021/03/12 03:26:49;;;;;;;;;;;;;;;7.94;46.18;98730.75;4789090;29;20326;-74
2021/03/12 03:33:00;;;;;;;;;;;;;;;7.89;47.09;98747.69;4803795;29;19932;-73
2021/03/12 03:35:32;;;;;;;;;;;;;;;7.87;47.32;98752.19;4803883;29;20434;-74
2021/03/12 03:38:02;;;;;;;;;;;;;;;7.84;48.33;98755.84;4803763;29;20417;-73
2021/03/12 03:40:33;;;;;;;;;;;;;;;7.82;48.12;98755.88;4803552;29;20380;-74
2021/03/12 03:43:05;;;;;;;;;;;;;;;7.80;48.98;98752.47;4803290;29;19941;-74
2021/03/12 03:45:59;;;;;;;;;;;;;;;7.78;48.88;98753.47;4798870;29;20417;-73
2021/03/12 03:49:17;;;;;;;;;;;;;;;7.77;49.13;98768.44;4804081;29;20020;-74
2021/03/12 03:51:49;;;;;;;;;;;;;;;7.76;49.53;98763.22;4804022;29;20383;-73
2021/03/12 03:54:25;;;;;;;;;;;;;;;7.73;49.91;98764.22;4803419;29;20418;-73
2021/03/12 03:57:03;;;;;;;;;;;;;;;7.73;49.91;98769.47;4803485;29;20386;-74
2021/03/12 04:03:38;;;;;;;;;;;;;;;7.70;50.63;98777.53;4805444;29;20390;-74
2021/03/12 04:06:09;;;;;;;;;;;;;;;7.68;50.93;98774.09;4807281;29;20293;-73
2021/03/12 04:19:35;;;;;;;;;;;;;;;7.63;51.81;98795.41;4823992;29;19968;-73
2021/03/12 04:22:05;;;;;;;;;;;;;;;7.68;51.55;98792.53;4824198;29;20390;-73
2021/03/12 04:28:41;;;;;;;;;;;;;;;8.06;47.63;98800.38;4822669;29;19979;-73
2021/03/12 04:31:12;;;;;;;;;;;;;;;8.11;46.22;98795.75;4803898;29;20444;-73
2021/03/12 04:33:42;;;;;;;;;;;;;;;8.16;46.00;98800.81;4805279;29;20462;-73
2021/03/12 04:36:14;;;;;;;;;;;;;;;8.13;45.65;98801.81;4803978;29;20520;-73
2021/03/12 04:42:45;;;;;;;;;;;;;;;7.94;48.05;98804.47;4805585;29;19932;-74
2021/03/12 04:45:15;;;;;;;;;;;;;;;7.99;48.14;98806.88;4803755;29;19955;-73
2021/03/12 04:47:49;;;;;;;;;;;;;;;8.08;47.04;98809.09;4805084;29;20439;-74
2021/03/12 04:50:19;;;;;;;;;;;;;;;8.15;46.39;98809.63;4803858;29;20079;-74
2021/03/12 04:52:54;;;;;;;;;;;;;;;8.19;45.91;98828.78;4804708;29;20399;-73
2021/03/12 04:59:06;;;;;;;;;;;;;;;8.26;44.42;98835.44;4805046;29;19954;-73
2021/03/12 05:01:37;;;;;;;;;;;;;;;8.30;44.15;98831.75;4804878;29;20302;-74
2021/03/12 05:04:08;;;;;;;;;;;;;;;8.34;43.29;98824.53;4803517;29;19929;-74
2021/03/12 05:06:41;;;;;;;;;;;;;;;8.37;43.21;98835.78;4804461;29;20375;-73
2021/03/12 05:13:39;;;;;;;;;;;;;;;8.38;42.61;98832.25;4805193;29;19973;-73
2021/03/12 05:16:10;;;;;;;;;;;;;;;8.38;42.54;98834.00;4804974;29;20410;-73
2021/03/12 05:18:40;;;;;;;;;;;;;;;8.38;42.76;98844.53;4804746;29;20426;-74
2021/03/12 05:21:11;;;;;;;;;;;;;;;8.40;42.48;98842.69;4804172;29;20406;-74
2021/03/12 05:23:41;;;;;;;;;;;;;;;8.42;42.18;98844.31;4804726;29;20372;-73
2021/03/12 05:26:12;;;;;;;;;;;;;;;8.45;41.58;98838.06;4805260;29;20376;-73
2021/03/12 05:28:42;;;;;;;;;;;;;;;8.47;41.62;98846.78;4808307;29;20410;-73
2021/03/12 05:31:12;;;;;;;;;;;;;;;8.44;41.33;98846.88;4806755;29;19941;-73
2021/03/12 05:33:41;;;;;;;;;;;;;;;8.27;42.23;98848.56;4807558;29;20303;-73
2021/03/12 05:36:16;;;;;;;;;;;;;;;8.14;43.14;98861.47;4791173;29;20348;-73
2021/03/12 05:38:46;;;;;;;;;;;;;;;8.04;43.88;98859.34;4807884;29;20459;-73
2021/03/12 05:41:16;;;;;;;;;;;;;;;7.94;44.92;98851.84;4807576;29;19929;-73
2021/03/12 05:43:46;;;;;;;;;;;;;;;7.89;45.61;98855.63;4807659;29;20406;-73
2021/03/12 05:46:19;;;;;;;;;;;;;;;7.84;45.76;98855.88;4791286;29;20347;-73
2021/03/12 05:53:04;;;;;;;;;;;;;;;7.77;47.03;98872.84;4807959;29;19936;-74
2021/03/12 05:59:34;;;;;;;;;;;;;;;7.72;47.91;98877.47;4787751;30;19932;-75
2021/03/12 06:02:07;;;;;;;;;;;;;;;7.67;48.77;98867.16;4787004;29;20375;-74
2021/03/12 06:04:38;;;;;;;;;;;;;;;7.67;48.88;98880.34;4786573;30;20387;-76
2021/03/12 06:07:13;;;;;;;;;;;;;;;7.65;48.76;98880.38;4787681;29;20415;-74
2021/03/12 06:09:46;;;;;;;;;;;;;;;7.63;49.20;98878.75;4787378;29;20032;-75
2021/03/12 06:12:16;;;;;;;;;;;;;;;7.62;49.15;98891.06;4787427;29;20369;-74
2021/03/12 06:14:49;;;;;;;;;;;;;;;7.61;49.79;98886.69;4786975;30;20384;-74
2021/03/12 06:17:49;;;;;;;;;;;;;;;7.62;50.03;98885.78;4786095;30;19929;-73
2021/03/12 06:24:28;;;;;;;;;;;;;;;7.63;50.46;98898.03;4787051;30;20379;-75
2021/03/12 06:27:24;;;;;;;;;;;;;;;7.62;50.32;98917.38;4787593;30;20431;-74
2021/03/12 06:30:02;;;;;;;;;;;;;;;7.59;50.46;98909.63;4789672;29;20387;-74
2021/03/12 06:32:46;;;;;;;;;;;;;;;7.58;51.07;98917.59;4822454;29;20387;-74
2021/03/12 06:39:33;;;;;;;;;;;;;;;7.60;51.39;98919.22;4810848;29;19931;-75
2021/03/12 06:42:18;;;;;;;;;;;;;;;7.64;50.97;98933.97;4824864;29;20428;-74
2021/03/12 06:44:52;;;;;;;;;;;;;;;7.86;50.15;98935.63;4824133;29;20493;-74
2021/03/12 06:47:24;;;;;;;;;;;;;;;8.04;48.61;98943.63;4824283;29;20401;-74
2021/03/12 06:50:09;;;;;;;;;;;;;;;8.07;49.65;98949.59;4808808;29;20378;-75
2021/03/12 06:52:47;;;;;;;;;;;;;;;8.08;49.47;98953.09;4808633;29;20352;-74
2021/03/12 06:55:42;;;;;;;;;;;;;;;8.09;49.78;98960.03;4808808;29;20300;-74
2021/03/12 07:05:55;;;;;;;;;;;;;;;8.61;45.09;98973.44;4824943;29;19969;-74
2021/03/12 07:08:54;;;;;;;;;;;;;;;8.64;44.24;98981.22;4824696;29;20475;-75
2021/03/12 07:11:44;;;;;;;;;;;;;;;8.72;43.50;98987.91;4824433;29;20351;-74
2021/03/12 07:14:47;;;;;;;;;;;;;;;8.85;43.31;98996.97;4819901;29;19936;-73
2021/03/12 07:17:25;;;;;;;;;;;;;;;8.87;42.95;98992.44;4824219;29;20445;-72
2021/03/12 07:20:01;;;;;;;;;;;;;;;8.89;42.13;98995.88;4824423;29;20466;-73
2021/03/12 07:22:33;;;;;;;;;;;;;;;8.86;41.89;99003.91;4824320;29;20283;-73
2021/03/12 07:25:03;;;;;;;;;;;;;;;8.80;41.83;99007.72;4823961;29;20027;-73
2021/03/12 07:27:40;;;;;;;;;;;;;;;8.80;42.18;99010.34;4807808;29;20304;-72
2021/03/12 07:34:00;;;;;;;;;;;;;;;8.96;41.23;99026.28;4821892;29;19993;-73
2021/03/12 07:36:36;;;;;;;;;;;;;;;9.07;40.81;99032.84;4824207;29;20360;-73
2021/03/12 07:39:10;;;;;;;;;;;;;;;9.10;40.38;99028.25;4807733;29;19929;-73
2021/03/12 07:41:40;;;;;;;;;;;;;;;9.14;40.85;99039.53;4823492;29;20358;-73
2021/03/12 07:44:38;;;;;;;;;;;;;;;9.10;41.16;99036.19;4808895;29;19933;-73
2021/03/12 07:47:56;;;;;;;;;;;;;;;9.05;42.11;99045.22;4767444;30;19953;-73
2021/03/12 07:54:16;;;;;;;;;;;;;;;9.11;42.96;99060.75;4767950;30;20388;-73
2021/03/12 07:56:55;;;;;;;;;;;;;;;9.20;43.80;99067.38;4781141;30;20460;-73
2021/03/12 08:00:04;;;;;;;;;;;;;;;9.38;43.65;99074.41;4803348;29;20046;-73
2021/03/12 08:10:19;;;;;;;;;;;;;;;9.50;44.42;99094.06;4765297;29;19972;-73
2021/03/12 08:20:36;;;;;;;;;;;;;;;9.68;46.06;99118.69;4749871;30;20501;-72
2021/03/12 08:23:55;;;;;;;;;;;;;;;9.70;46.21;99131.81;4749282;30;20385;-73
2021/03/12 08:26:51;;;;;;;;;;;;;;;9.67;46.08;99142.56;4734970;30;20098;-72
2021/03/12 08:33:57;;;;;;;;;;;;;;;9.53;47.09;99153.78;4784999;30;19985;-73
2021/03/12 08:37:12;;;;;;;;;;;;;;;9.47;47.37;99158.41;4765005;30;19946;-73
2021/03/12 08:40:12;;;;;;;;;;;;;;;9.56;47.23;99165.03;4769322;30;20453;-73
2021/03/12 08:43:03;;;;;;;;;;;;;;;9.59;47.14;99171.97;4785532;30;19929;-73
2021/03/12 08:45:51;;;;;;;;;;;;;;;9.69;47.56;99175.88;4785054;30;19978;-73
2021/03/12 08:48:52;;;;;;;;;;;;;;;9.86;46.67;99175.03;4784458;30;20396;-73
2021/03/12 08:51:24;;;;;;;;;;;;;;;10.29;43.97;99185.22;4769180;30;20482;-73
2021/03/12 08:54:03;;;;;;;;;;;;;;;10.44;44.40;99178.31;4814053;29;20005;-73
2021/03/12 08:56:43;;;;;;;;;;;;;;;10.34;44.85;99192.94;4807319;29;20376;-73
2021/03/12 08:59:14;;;;;;;;;;;;;;;10.33;45.17;99204.44;4822757;29;20371;-73
2021/03/12 09:02:22;;;;;;;;;;;;;;;10.68;43.91;99199.16;4822515;29;19928;-73
2021/03/12 09:05:26;;;;;;;;;;;;;;;11.40;41.11;99204.97;4809677;29;20320;-73
2021/03/12 09:08:38;;;;;;;;;;;;;;;11.76;39.34;99203.84;4826285;29;20062;-73
2021/03/12 09:11:44;;;;;;;;;;;;;;;11.74;38.59;99209.25;4826215;29;20339;-73
2021/03/12 09:14:15;;;;;;;;;;;;;;;12.37;36.95;99209.19;4826491;29;19929;-73
2021/03/12 09:16:44;;;;;;;;;;;;;;;12.23;36.83;99210.88;4826145;29;20368;-73
2021/03/12 09:19:17;;;;;;;;;;;;;;;12.08;36.85;99220.59;4808842;29;20371;-73
2021/03/12 09:21:58;;;;;;;;;;;;;;;12.30;36.21;99221.97;4825800;29;19937;-73
2021/03/12 09:24:36;;;;;;;;;;;;;;;12.19;36.19;99227.06;4809478;29;20422;-73
2021/03/12 09:27:18;;;;;;;;;;;;;;;11.98;36.46;99224.72;4826054;29;20387;-73
2021/03/12 09:30:03;;;;;;;;;;;;;;;11.97;36.36;99230.09;4809394;29;20363;-73
2021/03/12 09:32:40;;;;;;;;;;;;;;;12.13;36.32;99244.16;4809204;29;19929;-74
2021/03/12 09:35:20;;;;;;;;;;;;;;;12.16;36.80;99241.34;4809182;29;19933;-74
2021/03/12 09:37:57;;;;;;;;;;;;;;;12.25;37.27;99242.59;4826033;29;20418;-74
2021/03/12 09:40:40;;;;;;;;;;;;;;;12.78;36.47;99241.22;4820907;29;19929;-73
2021/03/12 09:43:38;;;;;;;;;;;;;;;12.90;36.60;99238.78;4825799;29;20467;-74
2021/03/12 09:46:16;;;;;;;;;;;;;;;12.98;36.95;99255.06;4825540;29;20001;-73
2021/03/12 09:52:43;;;;;;;;;;;;;;;12.83;37.75;99256.00;4826012;29;19932;-73
2021/03/12 09:55:27;;;;;;;;;;;;;;;12.73;38.13;99261.03;4825686;29;20355;-73
2021/03/12 09:57:57;;;;;;;;;;;;;;;12.97;38.04;99257.81;4809837;29;20305;-74
2021/03/12 10:00:36;;;;;;;;;;;;;;;14.16;35.76;99250.38;4820352;29;20355;-74
2021/03/12 10:06:56;;;;;;;;;;;;;;;13.95;36.70;99261.44;4825459;29;20016;-74
2021/03/12 10:09:29;;;;;;;;;;;;;;;14.17;36.45;99258.22;4825360;29;20425;-73
2021/03/12 10:12:33;;;;;;;;;;;;;;;15.09;34.61;99266.28;4814603;29;20291;-74
2021/03/12 10:18:57;;;;;;;;;;;;;;;13.66;38.26;99264.19;4825338;29;19931;-74
2021/03/12 10:21:27;;;;;;;;;;;;;;;13.77;37.88;99259.00;4825094;29;19929;-74
2021/03/12 10:23:56;;;;;;;;;;;;;;;13.86;37.98;99270.84;4825253;29;20421;-73
2021/03/12 10:26:29;;;;;;;;;;;;;;;13.63;38.60;99264.34;4825292;29;19928;-74
2021/03/12 10:32:46;;;;;;;;;;;;;;;17.18;31.74;99278.53;4825162;29;20441;-76
2021/03/12 10:35:25;;;;;;;;;;;;;;;16.76;32.48;99284.38;4824968;29;20280;-76
2021/03/12 10:37:57;;;;;;;;;;;;;;;16.84;32.69;99291.81;4824881;29;20394;-76
2021/03/12 10:40:27;;;;;;;;;;;;;;;19.51;28.34;99271.00;4825050;29;20387;-74
2021/03/12 10:43:00;;;;;;;;;;;;;;;19.51;28.41;99279.88;4824628;29;20391;-74
2021/03/12 10:45:32;;;;;;;;;;;;;;;21.15;26.06;99277.63;4824675;29;19937;-74
2021/03/12 10:48:05;;;;;;;;;;;;;;;22.43;24.35;99285.91;4824804;29;20460;-75
2021/03/12 10:51:10;;;;;;;;;;;;;;;22.10;24.97;99289.09;4824732;29;19936;-74
2021/03/12 10:53:45;;;;;;;;;;;;;;;19.73;28.67;99286.88;4824822;29;19929;-74
2021/03/12 10:56:15;;;;;;;;;;;;;;;18.57;30.88;99294.13;4824324;29;19945;-74
2021/03/12 11:02:51;;;;;;;;;;;;;;;17.62;33.25;99297.34;4824671;29;20402;-74
2021/03/12 11:05:20;;;;;;;;;;;;;;;19.79;29.56;99293.53;4824774;29;20372;-74
2021/03/12 11:07:51;;;;;;;;;;;;;;;22.21;25.63;99279.97;4824519;29;19928;-75
2021/03/12 11:10:20;;;;;;;;;;;;;;;23.31;24.02;99288.63;4824289;29;20410;-74
2021/03/12 11:12:51;;;;;;;;;;;;;;;22.31;25.37;99294.22;4824064;29;19962;-76
2021/03/12 11:19:03;;;;;;;;;;;;;;;19.29;30.83;99299.69;4824435;29;20004;-75
2021/03/12 11:21:37;;;;;;;;;;;;;;;18.27;32.90;99313.59;4807387;29;21405;-75
2021/03/12 11:27:53;;;;;;;;;;;;;;;16.50;36.75;99322.88;4824406;29;20306;-74
2021/03/12 11:30:23;;;;;;;;;;;;;;;16.16;37.42;99330.72;4823963;29;20292;-74
2021/03/12 11:32:52;;;;;;;;;;;;;;;15.79;38.41;99323.53;4823993;29;20287;-74
2021/03/12 11:35:23;;;;;;;;;;;;;;;15.44;38.84;99327.75;4824171;29;20029;-74
2021/03/12 11:37:55;;;;;;;;;;;;;;;15.07;39.99;99332.09;4823946;29;20024;-74
2021/03/12 11:44:07;;;;;;;;;;;;;;;14.50;41.59;99325.25;4823967;29;19932;-74
2021/03/12 11:46:37;;;;;;;;;;;;;;;14.43;41.54;99330.13;4823902;29;20358;-74
2021/03/12 11:49:07;;;;;;;;;;;;;;;14.17;41.89;99338.00;4823409;29;19929;-74
2021/03/12 11:51:39;;;;;;;;;;;;;;;13.91;42.87;99364.47;4823817;29;19929;-74
2021/03/12 11:57:53;;;;;;;;;;;;;;;13.42;44.21;99394.06;4823776;29;20360;-74
2021/03/12 12:00:22;;;;;;;;;;;;;;;13.43;44.10;99369.22;4823564;29;20347;-73
2021/03/12 12:02:51;;;;;;;;;;;;;;;13.63;43.27;99367.13;4823647;29;19976;-74
2021/03/12 12:05:20;;;;;;;;;;;;;;;14.06;42.46;99367.94;4806979;29;20371;-74
2021/03/12 12:07:50;;;;;;;;;;;;;;;14.77;40.50;99368.69;4823459;29;20382;-73
2021/03/12 12:14:02;;;;;;;;;;;;;;;16.43;36.72;99355.34;4824170;29;19981;-74
2021/03/12 12:16:31;;;;;;;;;;;;;;;16.29;36.97;99358.19;4823904;29;19929;-74
2021/03/12 12:19:04;;;;;;;;;;;;;;;16.23;37.29;99362.16;4823368;29;20370;-73
2021/03/12 12:21:34;;;;;;;;;;;;;;;16.22;37.45;99354.28;4822991;29;20399;-73
2021/03/12 12:27:52;;;;;;;;;;;;;;;17.08;35.87;99357.69;4823685;29;19932;-73
2021/03/12 12:30:25;;;;;;;;;;;;;;;17.14;35.69;99367.06;4822987;29;20462;-76
2021/03/12 12:32:54;;;;;;;;;;;;;;;16.67;36.61;99361.66;4823505;29;19986;-75
2021/03/12 12:35:23;;;;;;;;;;;;;;;16.36;37.49;99366.59;4823828;29;20400;-75
2021/03/12 12:37:53;;;;;;;;;;;;;;;16.15;38.13;99371.69;4826670;29;19929;-75
2021/03/12 12:40:24;;;;;;;;;;;;;;;16.55;37.29;99368.78;4826825;29;19929;-77
2021/03/12 12:42:54;;;;;;;;;;;;;;;17.67;34.92;99354.00;4826882;29;20085;-76
2021/03/12 12:45:25;;;;;;;;;;;;;;;18.55;33.25;99354.97;4826819;29;20031;-73
2021/03/12 12:47:58;;;;;;;;;;;;;;;19.00;32.60;99355.78;4826461;29;20064;-73
2021/03/12 12:54:11;;;;;;;;;;;;;;;21.12;28.99;99345.97;4826896;29;20073;-73
2021/03/12 12:56:42;;;;;;;;;;;;;;;21.52;28.42;99358.34;4826913;29;20399;-75
2021/03/12 12:59:13;;;;;;;;;;;;;;;20.65;30.19;99348.53;4826587;29;19947;-74
2021/03/12 13:01:43;;;;;;;;;;;;;;;21.17;29.15;99348.22;4826500;29;19929;-74
2021/03/12 13:07:54;;;;;;;;;;;;;;;19.31;32.66;99335.25;4827167;29;20024;-74
2021/03/12 13:10:24;;;;;;;;;;;;;;;18.53;34.35;99335.53;4826465;29;19985;-74
2021/03/12 13:12:53;;;;;;;;;;;;;;;18.42;34.82;99340.91;4826370;29;19928;-74
2021/03/12 13:15:22;;;;;;;;;;;;;;;18.35;34.86;99343.25;4826123;29;19929;-73
2021/03/12 13:17:54;;;;;;;;;;;;;;;18.35;35.05;99331.69;4825360;29;19928;-74
2021/03/12 13:24:06;;;;;;;;;;;;;;;17.23;37.31;99347.63;4826372;29;19954;-74
2021/03/12 13:26:35;;;;;;;;;;;;;;;17.06;37.67;99348.97;4826393;29;20413;-74
2021/03/12 13:29:04;;;;;;;;;;;;;;;16.68;38.54;99363.34;4825962;29;20489;-73
2021/03/12 13:31:34;;;;;;;;;;;;;;;16.28;39.18;99369.81;4825474;29;19929;-74
2021/03/12 13:37:49;;;;;;;;;;;;;;;16.16;39.76;99378.72;4825796;29;19955;-73
2021/03/12 13:40:21;;;;;;;;;;;;;;;17.08;37.81;99385.28;4825642;29;20284;-73
2021/03/12 13:42:58;;;;;;;;;;;;;;;17.89;35.95;99379.06;4826181;29;19939;-73
2021/03/12 13:49:09;;;;;;;;;;;;;;;20.32;31.42;99377.47;4825618;29;19931;-74
2021/03/12 13:51:39;;;;;;;;;;;;;;;21.61;29.44;99377.31;4825657;29;20291;-73
2021/03/12 13:54:10;;;;;;;;;;;;;;;21.50;29.67;99387.22;4825719;29;20396;-73
2021/03/12 13:56:43;;;;;;;;;;;;;;;19.95;32.52;99378.91;4825696;29;19929;-74
2021/03/12 14:10:16;;;;;;;;;;;;;;;17.30;38.08;99396.97;4751484;30;20398;-73
2021/03/12 14:12:45;;;;;;;;;;;;;;;16.95;38.63;99386.31;4751607;30;20276;-74
2021/03/12 14:19:13;;;;;;;;;;;;;;;16.27;40.38;99387.66;4825088;29;19975;-74
2021/03/12 14:21:43;;;;;;;;;;;;;;;16.25;40.33;99386.91;4824931;29;20317;-74
2021/03/12 14:24:24;;;;;;;;;;;;;;;15.97;40.82;99389.84;4825224;29;19935;-74
2021/03/12 14:26:55;;;;;;;;;;;;;;;15.75;41.38;99388.69;4825106;29;20020;-74
2021/03/12 14:29:47;;;;;;;;;;;;;;;15.45;42.02;99403.19;4824522;29;19939;-73
2021/03/12 14:32:17;;;;;;;;;;;;;;;15.19;42.66;99399.66;4825099;29;19929;-73
2021/03/12 14:34:55;;;;;;;;;;;;;;;15.01;43.03;99407.94;4824972;29;19932;-73
2021/03/12 14:37:25;;;;;;;;;;;;;;;14.87;43.59;99408.84;4824897;29;19929;-74
2021/03/12 14:39:55;;;;;;;;;;;;;;;14.63;43.67;99415.75;4824772;29;20370;-75
2021/03/12 14:42:28;;;;;;;;;;;;;;;15.41;41.00;99409.72;4824667;29;19954;-75
2021/03/12 14:44:57;;;;;;;;;;;;;;;17.16;36.15;99397.19;4824254;29;19945;-74
2021/03/12 14:47:47;;;;;;;;;;;;;;;17.66;34.15;99392.41;4814291;29;20024;-74
2021/03/12 14:50:18;;;;;;;;;;;;;;;17.81;33.33;99400.19;4825042;29;20260;-74
2021/03/12 14:52:58;;;;;;;;;;;;;;;17.93;33.00;99377.88;4824997;29;19954;-76
2021/03/12 14:55:32;;;;;;;;;;;;;;;17.34;33.77;99395.78;4824572;29;19929;-74
2021/03/12 14:58:05;;;;;;;;;;;;;;;16.89;34.22;99390.28;4824330;29;20422;-74
2021/03/12 15:04:35;;;;;;;;;;;;;;;16.85;35.13;99404.81;4803922;29;19948;-74
2021/03/12 15:07:06;;;;;;;;;;;;;;;17.12;34.86;99407.25;4804497;29;20417;-75
2021/03/12 15:09:37;;;;;;;;;;;;;;;17.98;33.59;99393.53;4803849;29;20304;-75
2021/03/12 15:12:08;;;;;;;;;;;;;;;18.56;32.65;99396.84;4789123;29;19929;-75
2021/03/12 15:14:41;;;;;;;;;;;;;;;18.80;32.63;99400.31;4804199;29;20469;-76
2021/03/12 15:17:11;;;;;;;;;;;;;;;18.88;32.65;99401.38;4804686;29;20379;-74
2021/03/12 15:19:42;;;;;;;;;;;;;;;18.70;33.26;99401.06;4803871;29;20247;-74
2021/03/12 15:22:14;;;;;;;;;;;;;;;18.86;33.31;99403.31;4804116;29;20506;-75
2021/03/12 15:24:45;;;;;;;;;;;;;;;19.02;33.15;99397.56;4803492;29;20453;-74
2021/03/12 15:27:15;;;;;;;;;;;;;;;18.96;33.41;99399.91;4803915;29;19933;-74
2021/03/12 15:29:46;;;;;;;;;;;;;;;18.82;33.75;99407.25;4803846;29;20374;-74
2021/03/12 15:32:17;;;;;;;;;;;;;;;18.57;34.56;99405.75;4804122;29;20375;-76
2021/03/12 15:34:48;;;;;;;;;;;;;;;18.00;35.83;99399.63;4803607;29;20284;-74
2021/03/12 15:37:19;;;;;;;;;;;;;;;17.53;36.72;99405.91;4807477;29;20302;-74
2021/03/12 15:43:50;;;;;;;;;;;;;;;16.87;38.23;99408.22;4824599;29;20001;-76
2021/03/12 15:46:24;;;;;;;;;;;;;;;16.58;38.72;99408.56;4824980;29;20267;-73
2021/03/12 15:48:56;;;;;;;;;;;;;;;16.33;39.38;99409.53;4807658;29;19929;-79
2021/03/12 15:51:35;;;;;;;;;;;;;;;16.05;40.16;99412.38;4824650;29;20409;-80
2021/03/12 15:57:49;;;;;;;;;;;;;;;15.58;41.12;99419.19;4825063;29;19932;-74
2021/03/12 16:00:20;;;;;;;;;;;;;;;15.42;41.85;99419.41;4823850;29;20394;-72
2021/03/12 16:02:53;;;;;;;;;;;;;;;15.23;42.21;99411.81;4824027;29;20387;-75
2021/03/12 16:05:27;;;;;;;;;;;;;;;15.15;42.10;99404.34;4807217;29;20426;-75
2021/03/12 16:07:57;;;;;;;;;;;;;;;14.99;42.64;99409.00;4807076;29;19935;-75
2021/03/12 16:10:30;;;;;;;;;;;;;;;14.78;43.03;99398.81;4823550;29;19981;-73
2021/03/12 16:13:00;;;;;;;;;;;;;;;14.67;43.45;99396.88;4824293;29;20383;-76
2021/03/12 16:15:39;;;;;;;;;;;;;;;14.55;43.77;99395.84;4819011;29;20391;-74
2021/03/12 16:22:43;;;;;;;;;;;;;;;14.30;44.08;99396.59;4824201;29;19992;-75
2021/03/12 16:25:25;;;;;;;;;;;;;;;14.20;44.03;99380.34;4823494;29;20294;-76
2021/03/12 16:28:04;;;;;;;;;;;;;;;14.15;44.56;99389.59;4823957;29;20387;-75
2021/03/12 16:30:41;;;;;;;;;;;;;;;14.06;44.36;99383.03;4818558;29;19952;-76
2021/03/12 16:43:55;;;;;;;;;;;;;;;13.70;45.22;99403.03;4834943;29;20081;-77
2021/03/12 16:46:25;;;;;;;;;;;;;;;13.65;44.96;99397.13;4846765;29;20095;-76
2021/03/12 16:48:52;;;;;;;;;;;;;;;13.62;45.04;99398.19;4832897;29;19953;-75
2021/03/12 16:51:24;;;;;;;;;;;;;;;13.50;44.98;99391.81;4838956;29;19944;-76
2021/03/12 16:53:51;;;;;;;;;;;;;;;13.52;45.24;99395.22;4837613;29;19929;-77
2021/03/12 16:56:17;;;;;;;;;;;;;;;13.42;45.09;99402.03;4837987;29;19932;-76
2021/03/12 16:58:45;;;;;;;;;;;;;;;13.37;45.28;99401.44;4843444;29;19940;-76
2021/03/12 17:01:16;;;;;;;;;;;;;;;13.30;45.37;99403.59;4850033;29;20042;-75
2021/03/12 17:03:45;;;;;;;;;;;;;;;13.22;45.68;99411.19;4846685;29;19936;-76
2021/03/12 17:06:15;;;;;;;;;;;;;;;13.17;45.56;99411.47;4852671;29;19937;-75
2021/03/12 17:08:42;;;;;;;;;;;;;;;13.10;45.77;99410.09;4855528;29;19932;-75
2021/03/12 17:11:13;;;;;;;;;;;;;;;13.05;45.91;99402.44;4843273;29;20523;-75
2021/03/12 17:13:40;;;;;;;;;;;;;;;13.00;45.80;99403.63;4855847;29;19937;-75
2021/03/12 17:16:08;;;;;;;;;;;;;;;12.97;46.26;99407.31;4835919;29;20031;-75
2021/03/12 17:18:36;;;;;;;;;;;;;;;12.91;46.38;99405.03;4838064;29;20192;-75
2021/03/12 17:21:05;;;;;;;;;;;;;;;12.83;46.39;99409.91;4830006;29;19936;-75
2021/03/12 17:23:32;;;;;;;;;;;;;;;12.76;46.46;99410.28;4855521;29;19932;-74
2021/03/12 17:26:02;;;;;;;;;;;;;;;12.73;46.30;99414.91;4849377;29;19939;-75
2021/03/12 17:28:29;;;;;;;;;;;;;;;12.70;46.55;99401.81;4837096;29;19989;-75